sensor_id;sensor_type;location;lat;lon;timestamp;temperature;humidity
1179;DHT22;578;48.408;10.004;2023-02-05T00:00:21;-1.10;99.90
1179;DHT22;578;48.408;10.004;2023-02-05T00:02:47;-1.20;99.90
1179;DHT22;578;48.408;10.004;2023-02-05T00:05:14;-1.20;99.90
1179;DHT22;578;48.408;10.004;2023-02-05T00:07:41;-1.30;99.90
1179;DHT22;578;48.408;10.004;2023-02-05T00:10:08;-1.40;99.90
1179;DHT22;578;48.408;10.004;2023-02-05T00:12:35;-1.20;99.90
1179;DHT22;578;48.408;10.004;2023-02-05T00:15:03;-1.30;99.90
1179;DHT22;578;48.408;10.004;2023-02-05T00:17:33;-1.40;99.90
1179;DHT22;578;48.408;10.004;2023-02-05T00:20:00;-1.30;99.90
1179;DHT22;578;48.408;10.004;2023-02-05T00:22:26;-1.40;99.90
1179;DHT22;578;48.408;10.004;2023-02-05T00:24:53;-1.30;99.90
1179;DHT22;578;48.408;10.004;2023-02-05T00:27:20;-1.40;99.90
1179;DHT22;578;48.408;10.004;2023-02-05T00:29:46;-1.40;99.90
1179;DHT22;578;48.408;10.004;2023-02-05T00:32:13;-1.40;99.90
1179;DHT22;578;48.408;10.004;2023-02-05T00:34:41;-1.60;99.90
1179;DHT22;578;48.408;10.004;2023-02-05T00:37:08;-1.60;99.90
1179;DHT22;578;48.408;10.004;2023-02-05T00:39:34;-1.40;99.90
1179;DHT22;578;48.408;10.004;2023-02-05T00:42:01;-1.60;99.90
1179;DHT22;578;48.408;10.004;2023-02-05T00:44:28;-1.70;99.90
1179;DHT22;578;48.408;10.004;2023-02-05T00:46:54;-1.70;99.90
1179;DHT22;578;48.408;10.004;2023-02-05T00:49:21;-1.80;99.90
1179;DHT22;578;48.408;10.004;2023-02-05T00:51:49;-1.70;99.90
1179;DHT22;578;48.408;10.004;2023-02-05T00:54:16;-1.80;99.90
1179;DHT22;578;48.408;10.004;2023-02-05T00:56:43;-1.70;99.90
1179;DHT22;578;48.408;10.004;2023-02-05T00:59:09;-1.70;99.90
1179;DHT22;578;48.408;10.004;2023-02-05T01:01:36;-1.60;99.90
1179;DHT22;578;48.408;10.004;2023-02-05T01:04:03;-1.60;99.90
1179;DHT22;578;48.408;10.004;2023-02-05T01:06:30;-1.80;99.90
1179;DHT22;578;48.408;10.004;2023-02-05T01:08:58;-1.80;99.90
1179;DHT22;578;48.408;10.004;2023-02-05T01:11:24;-1.90;99.90
1179;DHT22;578;48.408;10.004;2023-02-05T01:13:51;-1.90;99.90
1179;DHT22;578;48.408;10.004;2023-02-05T01:16:18;-1.80;99.90
1179;DHT22;578;48.408;10.004;2023-02-05T01:18:44;-1.90;99.90
1179;DHT22;578;48.408;10.004;2023-02-05T01:21:11;-1.90;99.90
1179;DHT22;578;48.408;10.004;2023-02-05T01:23:38;-1.90;99.90
1179;DHT22;578;48.408;10.004;2023-02-05T01:26:06;-1.90;99.90
1179;DHT22;578;48.408;10.004;2023-02-05T01:28:33;-2.00;99.90
1179;DHT22;578;48.408;10.004;2023-02-05T01:30:59;-2.10;99.90
1179;DHT22;578;48.408;10.004;2023-02-05T01:33:26;-2.10;99.90
1179;DHT22;578;48.408;10.004;2023-02-05T01:35:53;-2.10;99.90
1179;DHT22;578;48.408;10.004;2023-02-05T01:38:19;-2.10;99.90
1179;DHT22;578;48.408;10.004;2023-02-05T01:40:46;-2.10;99.90
1179;DHT22;578;48.408;10.004;2023-02-05T01:43:16;-2.10;99.90
1179;DHT22;578;48.408;10.004;2023-02-05T01:45:49;-2.10;99.90
1179;DHT22;578;48.408;10.004;2023-02-05T01:48:22;-2.10;99.90
1179;DHT22;578;48.408;10.004;2023-02-05T01:50:52;-2.20;99.90
1179;DHT22;578;48.408;10.004;2023-02-05T01:53:23;-2.20;99.90
1179;DHT22;578;48.408;10.004;2023-02-05T01:55:53;-2.10;99.90
1179;DHT22;578;48.408;10.004;2023-02-05T01:58:22;-2.20;99.90
1179;DHT22;578;48.408;10.004;2023-02-05T02:00:51;-2.20;99.90
1179;DHT22;578;48.408;10.004;2023-02-05T02:03:18;-2.30;99.90
1179;DHT22;578;48.408;10.004;2023-02-05T02:05:44;-2.30;99.90
1179;DHT22;578;48.408;10.004;2023-02-05T02:08:12;-2.30;99.90
1179;DHT22;578;48.408;10.004;2023-02-05T02:10:41;-2.10;99.90
1179;DHT22;578;48.408;10.004;2023-02-05T02:13:09;-2.20;99.90
1179;DHT22;578;48.408;10.004;2023-02-05T02:15:38;-2.20;99.90
1179;DHT22;578;48.408;10.004;2023-02-05T02:18:06;-2.20;99.90
1179;DHT22;578;48.408;10.004;2023-02-05T02:23:56;-2.20;99.90
1179;DHT22;578;48.408;10.004;2023-02-05T02:26:42;-2.30;99.90
1179;DHT22;578;48.408;10.004;2023-02-05T02:29:17;-2.40;99.90
1179;DHT22;578;48.408;10.004;2023-02-05T02:31:52;-2.30;99.90
1179;DHT22;578;48.408;10.004;2023-02-05T02:34:29;-2.20;99.90
1179;DHT22;578;48.408;10.004;2023-02-05T02:36:58;-2.30;99.90
1179;DHT22;578;48.408;10.004;2023-02-05T02:39:31;-2.40;99.90
1179;DHT22;578;48.408;10.004;2023-02-05T02:42:02;-2.50;99.90
1179;DHT22;578;48.408;10.004;2023-02-05T02:44:39;-2.40;99.90
1179;DHT22;578;48.408;10.004;2023-02-05T02:47:12;-2.40;99.90
1179;DHT22;578;48.408;10.004;2023-02-05T02:49:42;-2.50;99.90
1179;DHT22;578;48.408;10.004;2023-02-05T02:52:12;-2.40;99.90
1179;DHT22;578;48.408;10.004;2023-02-05T02:54:44;-2.40;99.90
1179;DHT22;578;48.408;10.004;2023-02-05T02:57:14;-2.40;99.90
1179;DHT22;578;48.408;10.004;2023-02-05T02:59:46;-2.30;99.90
1179;DHT22;578;48.408;10.004;2023-02-05T03:02:14;-2.30;99.90
1179;DHT22;578;48.408;10.004;2023-02-05T03:04:44;-2.30;99.90
1179;DHT22;578;48.408;10.004;2023-02-05T03:07:15;-2.40;99.90
1179;DHT22;578;48.408;10.004;2023-02-05T03:09:49;-2.50;99.90
1179;DHT22;578;48.408;10.004;2023-02-05T03:12:17;-2.60;99.90
1179;DHT22;578;48.408;10.004;2023-02-05T03:14:45;-2.40;99.90
1179;DHT22;578;48.408;10.004;2023-02-05T03:17:12;-2.60;99.90
1179;DHT22;578;48.408;10.004;2023-02-05T03:19:43;-2.70;99.90
1179;DHT22;578;48.408;10.004;2023-02-05T03:22:10;-2.60;99.90
1179;DHT22;578;48.408;10.004;2023-02-05T03:24:37;-2.60;99.90
1179;DHT22;578;48.408;10.004;2023-02-05T03:27:04;-2.50;99.90
1179;DHT22;578;48.408;10.004;2023-02-05T03:29:35;-2.60;99.90
1179;DHT22;578;48.408;10.004;2023-02-05T03:32:15;-2.60;99.90
1179;DHT22;578;48.408;10.004;2023-02-05T03:34:50;-2.60;99.90
1179;DHT22;578;48.408;10.004;2023-02-05T03:37:22;-2.60;99.90
1179;DHT22;578;48.408;10.004;2023-02-05T03:39:59;-2.60;99.90
1179;DHT22;578;48.408;10.004;2023-02-05T03:42:35;-2.50;99.90
1179;DHT22;578;48.408;10.004;2023-02-05T03:45:18;-2.50;99.90
1179;DHT22;578;48.408;10.004;2023-02-05T03:48:02;-2.60;99.90
1179;DHT22;578;48.408;10.004;2023-02-05T03:50:34;-2.60;99.90
1179;DHT22;578;48.408;10.004;2023-02-05T03:53:07;-2.70;99.90
1179;DHT22;578;48.408;10.004;2023-02-05T03:55:40;-2.80;99.90
1179;DHT22;578;48.408;10.004;2023-02-05T03:58:12;-2.80;99.90
1179;DHT22;578;48.408;10.004;2023-02-05T04:00:40;-2.80;99.90
1179;DHT22;578;48.408;10.004;2023-02-05T04:03:09;-2.70;99.90
1179;DHT22;578;48.408;10.004;2023-02-05T04:05:36;-2.70;99.90
1179;DHT22;578;48.408;10.004;2023-02-05T04:08:03;-2.60;99.90
1179;DHT22;578;48.408;10.004;2023-02-05T04:10:30;-2.70;99.90
1179;DHT22;578;48.408;10.004;2023-02-05T04:12:57;-2.80;99.90
1179;DHT22;578;48.408;10.004;2023-02-05T04:15:23;-2.70;99.90
1179;DHT22;578;48.408;10.004;2023-02-05T04:17:50;-2.80;99.90
1179;DHT22;578;48.408;10.004;2023-02-05T04:20:18;-2.80;99.90
1179;DHT22;578;48.408;10.004;2023-02-05T04:22:45;-2.90;99.90
1179;DHT22;578;48.408;10.004;2023-02-05T04:25:12;-2.90;99.90
1179;DHT22;578;48.408;10.004;2023-02-05T04:27:38;-2.80;99.90
1179;DHT22;578;48.408;10.004;2023-02-05T04:30:06;-2.80;99.90
1179;DHT22;578;48.408;10.004;2023-02-05T04:32:33;-2.80;99.90
1179;DHT22;578;48.408;10.004;2023-02-05T04:34:59;-2.80;99.90
1179;DHT22;578;48.408;10.004;2023-02-05T04:37:27;-2.80;99.90
1179;DHT22;578;48.408;10.004;2023-02-05T04:39:54;-3.00;99.90
1179;DHT22;578;48.408;10.004;2023-02-05T04:42:21;-3.00;99.90
1179;DHT22;578;48.408;10.004;2023-02-05T04:44:47;-2.90;99.90
1179;DHT22;578;48.408;10.004;2023-02-05T04:47:14;-2.90;99.90
1179;DHT22;578;48.408;10.004;2023-02-05T04:49:41;-2.90;99.90
1179;DHT22;578;48.408;10.004;2023-02-05T04:52:07;-3.00;99.90
1179;DHT22;578;48.408;10.004;2023-02-05T04:54:37;-3.00;99.90
1179;DHT22;578;48.408;10.004;2023-02-05T04:57:04;-3.20;99.90
1179;DHT22;578;48.408;10.004;2023-02-05T04:59:30;-3.10;99.90
1179;DHT22;578;48.408;10.004;2023-02-05T05:01:57;-3.10;99.90
1179;DHT22;578;48.408;10.004;2023-02-05T05:04:24;-3.00;99.90
1179;DHT22;578;48.408;10.004;2023-02-05T05:06:51;-3.10;99.90
1179;DHT22;578;48.408;10.004;2023-02-05T05:09:17;-3.10;99.90
1179;DHT22;578;48.408;10.004;2023-02-05T05:11:49;-3.00;99.90
1179;DHT22;578;48.408;10.004;2023-02-05T05:14:16;-3.10;99.90
1179;DHT22;578;48.408;10.004;2023-02-05T05:16:43;-3.00;99.90
1179;DHT22;578;48.408;10.004;2023-02-05T05:19:09;-3.10;99.90
1179;DHT22;578;48.408;10.004;2023-02-05T05:21:36;-3.20;99.90
1179;DHT22;578;48.408;10.004;2023-02-05T05:24:03;-3.20;99.90
1179;DHT22;578;48.408;10.004;2023-02-05T05:26:30;-3.30;99.90
1179;DHT22;578;48.408;10.004;2023-02-05T05:28:58;-3.20;99.90
1179;DHT22;578;48.408;10.004;2023-02-05T05:31:25;-3.10;99.90
1179;DHT22;578;48.408;10.004;2023-02-05T05:33:52;-3.30;99.90
1179;DHT22;578;48.408;10.004;2023-02-05T05:36:18;-3.20;99.90
1179;DHT22;578;48.408;10.004;2023-02-05T05:38:45;-3.20;99.90
1179;DHT22;578;48.408;10.004;2023-02-05T05:41:16;-3.00;99.90
1179;DHT22;578;48.408;10.004;2023-02-05T05:44:17;-3.10;99.90
1179;DHT22;578;48.408;10.004;2023-02-05T05:46:44;-3.20;99.90
1179;DHT22;578;48.408;10.004;2023-02-05T05:49:11;-3.20;99.90
1179;DHT22;578;48.408;10.004;2023-02-05T05:51:37;-3.20;99.90
1179;DHT22;578;48.408;10.004;2023-02-05T05:54:04;-3.30;99.90
1179;DHT22;578;48.408;10.004;2023-02-05T05:56:31;-3.30;99.90
1179;DHT22;578;48.408;10.004;2023-02-05T05:58:58;-3.30;99.90
1179;DHT22;578;48.408;10.004;2023-02-05T06:01:26;-3.40;99.90
1179;DHT22;578;48.408;10.004;2023-02-05T06:03:53;-3.40;99.90
1179;DHT22;578;48.408;10.004;2023-02-05T06:06:20;-3.40;99.90
1179;DHT22;578;48.408;10.004;2023-02-05T06:08:46;-3.40;99.90
1179;DHT22;578;48.408;10.004;2023-02-05T06:11:13;-3.30;99.90
1179;DHT22;578;48.408;10.004;2023-02-05T06:13:40;-3.40;99.90
1179;DHT22;578;48.408;10.004;2023-02-05T06:16:07;-3.30;99.90
1179;DHT22;578;48.408;10.004;2023-02-05T06:18:35;-3.20;99.90
1179;DHT22;578;48.408;10.004;2023-02-05T06:21:02;-3.20;99.90
1179;DHT22;578;48.408;10.004;2023-02-05T06:23:30;-3.10;99.90
1179;DHT22;578;48.408;10.004;2023-02-05T06:25:57;-2.90;99.90
1179;DHT22;578;48.408;10.004;2023-02-05T06:28:24;-2.90;99.90
1179;DHT22;578;48.408;10.004;2023-02-05T06:30:50;-2.90;99.90
1179;DHT22;578;48.408;10.004;2023-02-05T06:33:17;-2.70;99.90
1179;DHT22;578;48.408;10.004;2023-02-05T06:35:45;-2.70;99.90
1179;DHT22;578;48.408;10.004;2023-02-05T06:38:12;-2.60;99.90
1179;DHT22;578;48.408;10.004;2023-02-05T06:40:39;-2.50;99.90
1179;DHT22;578;48.408;10.004;2023-02-05T06:43:05;-2.40;99.90
1179;DHT22;578;48.408;10.004;2023-02-05T06:45:32;-2.30;99.90
1179;DHT22;578;48.408;10.004;2023-02-05T06:47:59;-2.30;99.90
1179;DHT22;578;48.408;10.004;2023-02-05T06:50:25;-2.20;99.90
1179;DHT22;578;48.408;10.004;2023-02-05T06:52:53;-2.20;99.90
1179;DHT22;578;48.408;10.004;2023-02-05T06:55:20;-2.20;99.90
1179;DHT22;578;48.408;10.004;2023-02-05T06:57:47;-2.30;99.90
1179;DHT22;578;48.408;10.004;2023-02-05T07:00:15;-2.20;99.90
1179;DHT22;578;48.408;10.004;2023-02-05T07:02:42;-2.30;99.90
1179;DHT22;578;48.408;10.004;2023-02-05T07:05:09;-2.20;99.90
1179;DHT22;578;48.408;10.004;2023-02-05T07:07:35;-2.10;99.90
1179;DHT22;578;48.408;10.004;2023-02-05T07:10:04;-2.10;99.90
1179;DHT22;578;48.408;10.004;2023-02-05T07:12:31;-1.90;99.90
1179;DHT22;578;48.408;10.004;2023-02-05T07:14:58;-1.80;99.90
1179;DHT22;578;48.408;10.004;2023-02-05T07:17:24;-1.70;99.90
1179;DHT22;578;48.408;10.004;2023-02-05T07:19:51;-1.80;99.90
1179;DHT22;578;48.408;10.004;2023-02-05T07:22:18;-1.80;99.90
1179;DHT22;578;48.408;10.004;2023-02-05T07:24:44;-1.70;99.90
1179;DHT22;578;48.408;10.004;2023-02-05T07:27:12;-1.70;99.90
1179;DHT22;578;48.408;10.004;2023-02-05T07:29:39;-1.60;99.90
1179;DHT22;578;48.408;10.004;2023-02-05T07:32:06;-1.50;99.90
1179;DHT22;578;48.408;10.004;2023-02-05T07:34:33;-1.40;99.90
1179;DHT22;578;48.408;10.004;2023-02-05T07:36:59;-1.30;99.90
1179;DHT22;578;48.408;10.004;2023-02-05T07:39:26;-1.20;99.90
1179;DHT22;578;48.408;10.004;2023-02-05T07:41:53;-1.10;99.90
1179;DHT22;578;48.408;10.004;2023-02-05T07:44:21;-1.10;99.90
1179;DHT22;578;48.408;10.004;2023-02-05T07:46:48;-1.00;99.90
1179;DHT22;578;48.408;10.004;2023-02-05T07:49:14;-0.80;99.90
1179;DHT22;578;48.408;10.004;2023-02-05T07:51:41;-0.70;99.90
1179;DHT22;578;48.408;10.004;2023-02-05T07:54:09;-0.60;99.90
1179;DHT22;578;48.408;10.004;2023-02-05T07:56:36;-0.60;99.90
1179;DHT22;578;48.408;10.004;2023-02-05T07:59:03;-0.30;99.90
1179;DHT22;578;48.408;10.004;2023-02-05T08:01:32;0.00;99.90
1179;DHT22;578;48.408;10.004;2023-02-05T08:03:59;0.90;99.90
1179;DHT22;578;48.408;10.004;2023-02-05T08:06:26;1.50;99.90
1179;DHT22;578;48.408;10.004;2023-02-05T08:08:53;2.00;99.90
1179;DHT22;578;48.408;10.004;2023-02-05T08:11:20;2.20;99.90
1179;DHT22;578;48.408;10.004;2023-02-05T08:13:47;2.30;99.90
1179;DHT22;578;48.408;10.004;2023-02-05T08:16:14;1.40;99.90
1179;DHT22;578;48.408;10.004;2023-02-05T08:18:46;0.80;99.90
1179;DHT22;578;48.408;10.004;2023-02-05T08:21:14;0.60;99.90
1179;DHT22;578;48.408;10.004;2023-02-05T08:23:40;1.00;99.90
1179;DHT22;578;48.408;10.004;2023-02-05T08:26:07;1.20;99.90
1179;DHT22;578;48.408;10.004;2023-02-05T08:28:34;0.80;99.90
1179;DHT22;578;48.408;10.004;2023-02-05T08:31:00;0.90;99.90
1179;DHT22;578;48.408;10.004;2023-02-05T08:33:27;1.00;99.90
1179;DHT22;578;48.408;10.004;2023-02-05T08:35:56;0.80;99.90
1179;DHT22;578;48.408;10.004;2023-02-05T08:38:23;0.90;99.90
1179;DHT22;578;48.408;10.004;2023-02-05T08:40:50;0.90;99.90
1179;DHT22;578;48.408;10.004;2023-02-05T08:43:16;0.90;99.90
1179;DHT22;578;48.408;10.004;2023-02-05T08:45:45;0.90;99.90
1179;DHT22;578;48.408;10.004;2023-02-05T08:48:12;0.90;99.90
1179;DHT22;578;48.408;10.004;2023-02-05T08:50:38;0.90;99.90
1179;DHT22;578;48.408;10.004;2023-02-05T08:53:06;1.00;99.90
1179;DHT22;578;48.408;10.004;2023-02-05T08:55:33;0.80;99.90
1179;DHT22;578;48.408;10.004;2023-02-05T08:58:00;0.80;99.90
1179;DHT22;578;48.408;10.004;2023-02-05T09:00:26;0.70;99.90
1179;DHT22;578;48.408;10.004;2023-02-05T09:02:53;0.80;99.90
1179;DHT22;578;48.408;10.004;2023-02-05T09:05:20;0.90;99.90
1179;DHT22;578;48.408;10.004;2023-02-05T09:07:47;1.10;99.90
1179;DHT22;578;48.408;10.004;2023-02-05T09:10:15;1.20;99.90
1179;DHT22;578;48.408;10.004;2023-02-05T09:12:42;1.30;99.90
1179;DHT22;578;48.408;10.004;2023-02-05T09:15:12;1.40;99.90
1179;DHT22;578;48.408;10.004;2023-02-05T09:17:38;1.20;99.90
1179;DHT22;578;48.408;10.004;2023-02-05T09:20:06;1.20;99.90
1179;DHT22;578;48.408;10.004;2023-02-05T09:22:32;1.20;99.90
1179;DHT22;578;48.408;10.004;2023-02-05T09:24:59;1.10;99.90
1179;DHT22;578;48.408;10.004;2023-02-05T09:27:27;1.00;99.90
1179;DHT22;578;48.408;10.004;2023-02-05T09:29:54;1.00;99.90
1179;DHT22;578;48.408;10.004;2023-02-05T09:32:21;1.10;99.90
1179;DHT22;578;48.408;10.004;2023-02-05T09:34:48;1.10;99.90
1179;DHT22;578;48.408;10.004;2023-02-05T09:37:15;1.20;99.90
1179;DHT22;578;48.408;10.004;2023-02-05T09:39:41;1.20;99.90
1179;DHT22;578;48.408;10.004;2023-02-05T09:42:13;1.30;99.90
1179;DHT22;578;48.408;10.004;2023-02-05T09:44:55;1.40;99.90
1179;DHT22;578;48.408;10.004;2023-02-05T09:47:28;1.40;99.90
1179;DHT22;578;48.408;10.004;2023-02-05T09:50:03;1.50;99.90
1179;DHT22;578;48.408;10.004;2023-02-05T09:52:36;1.60;99.90
1179;DHT22;578;48.408;10.004;2023-02-05T09:55:06;1.50;99.90
1179;DHT22;578;48.408;10.004;2023-02-05T09:57:40;1.60;99.90
1179;DHT22;578;48.408;10.004;2023-02-05T10:00:17;1.60;99.90
1179;DHT22;578;48.408;10.004;2023-02-05T10:02:48;1.70;99.90
1179;DHT22;578;48.408;10.004;2023-02-05T10:05:16;1.70;99.90
1179;DHT22;578;48.408;10.004;2023-02-05T10:07:49;1.60;99.90
1179;DHT22;578;48.408;10.004;2023-02-05T10:10:23;1.60;99.90
1179;DHT22;578;48.408;10.004;2023-02-05T10:13:20;1.70;99.90
1179;DHT22;578;48.408;10.004;2023-02-05T10:16:05;1.80;99.90
1179;DHT22;578;48.408;10.004;2023-02-05T10:18:45;1.70;99.90
1179;DHT22;578;48.408;10.004;2023-02-05T10:21:27;1.80;99.90
1179;DHT22;578;48.408;10.004;2023-02-05T10:26:58;2.00;99.90
1179;DHT22;578;48.408;10.004;2023-02-05T10:29:32;2.10;99.90
1179;DHT22;578;48.408;10.004;2023-02-05T10:32:15;2.00;99.90
1179;DHT22;578;48.408;10.004;2023-02-05T10:34:55;2.00;99.90
1179;DHT22;578;48.408;10.004;2023-02-05T10:37:31;1.90;99.90
1179;DHT22;578;48.408;10.004;2023-02-05T10:39:59;1.90;99.90
1179;DHT22;578;48.408;10.004;2023-02-05T10:42:31;2.00;99.90
1179;DHT22;578;48.408;10.004;2023-02-05T10:45:04;2.00;99.90
1179;DHT22;578;48.408;10.004;2023-02-05T10:47:51;2.00;99.90
1179;DHT22;578;48.408;10.004;2023-02-05T10:50:25;2.00;99.90
1179;DHT22;578;48.408;10.004;2023-02-05T10:52:54;2.00;99.90
1179;DHT22;578;48.408;10.004;2023-02-05T10:55:21;2.00;99.90
1179;DHT22;578;48.408;10.004;2023-02-05T10:57:47;2.10;99.90
1179;DHT22;578;48.408;10.004;2023-02-05T11:00:17;2.10;99.90
1179;DHT22;578;48.408;10.004;2023-02-05T11:02:47;2.10;99.90
1179;DHT22;578;48.408;10.004;2023-02-05T11:05:20;2.00;99.90
1179;DHT22;578;48.408;10.004;2023-02-05T11:07:50;2.10;99.90
1179;DHT22;578;48.408;10.004;2023-02-05T11:10:19;2.20;99.90
1179;DHT22;578;48.408;10.004;2023-02-05T11:12:48;2.20;99.90
1179;DHT22;578;48.408;10.004;2023-02-05T11:15:21;2.20;99.90
1179;DHT22;578;48.408;10.004;2023-02-05T11:17:53;2.40;99.90
1179;DHT22;578;48.408;10.004;2023-02-05T11:20:27;2.60;99.90
1179;DHT22;578;48.408;10.004;2023-02-05T11:23:06;2.40;99.90
1179;DHT22;578;48.408;10.004;2023-02-05T11:25:33;2.40;99.90
1179;DHT22;578;48.408;10.004;2023-02-05T11:28:01;2.40;99.90
1179;DHT22;578;48.408;10.004;2023-02-05T11:30:29;2.30;99.90
1179;DHT22;578;48.408;10.004;2023-02-05T11:32:57;2.30;99.90
1179;DHT22;578;48.408;10.004;2023-02-05T11:35:29;2.20;99.90
1179;DHT22;578;48.408;10.004;2023-02-05T11:38:06;2.30;99.90
1179;DHT22;578;48.408;10.004;2023-02-05T11:40:33;2.10;99.90
1179;DHT22;578;48.408;10.004;2023-02-05T11:43:05;2.10;99.90
1179;DHT22;578;48.408;10.004;2023-02-05T11:45:34;2.00;99.90
1179;DHT22;578;48.408;10.004;2023-02-05T11:48:22;2.00;99.90
1179;DHT22;578;48.408;10.004;2023-02-05T11:50:52;2.00;99.90
1179;DHT22;578;48.408;10.004;2023-02-05T11:53:19;2.00;99.90
1179;DHT22;578;48.408;10.004;2023-02-05T11:55:52;2.00;99.90
1179;DHT22;578;48.408;10.004;2023-02-05T11:58:22;2.00;99.90
1179;DHT22;578;48.408;10.004;2023-02-05T12:00:51;2.00;99.90
1179;DHT22;578;48.408;10.004;2023-02-05T12:03:18;1.90;99.90
1179;DHT22;578;48.408;10.004;2023-02-05T12:05:50;1.90;99.90
1179;DHT22;578;48.408;10.004;2023-02-05T12:08:26;1.80;99.90
1179;DHT22;578;48.408;10.004;2023-02-05T12:11:02;1.70;99.90
1179;DHT22;578;48.408;10.004;2023-02-05T12:13:42;1.70;99.90
1179;DHT22;578;48.408;10.004;2023-02-05T12:16:18;1.70;99.90
1179;DHT22;578;48.408;10.004;2023-02-05T12:18:54;1.70;99.90
1179;DHT22;578;48.408;10.004;2023-02-05T12:21:32;1.60;99.90
1179;DHT22;578;48.408;10.004;2023-02-05T12:24:16;1.60;99.90
1179;DHT22;578;48.408;10.004;2023-02-05T12:26:44;1.60;99.90
1179;DHT22;578;48.408;10.004;2023-02-05T12:29:24;1.60;99.90
1179;DHT22;578;48.408;10.004;2023-02-05T12:32:01;1.60;99.90
1179;DHT22;578;48.408;10.004;2023-02-05T12:34:39;1.60;99.90
1179;DHT22;578;48.408;10.004;2023-02-05T12:37:23;1.60;99.90
1179;DHT22;578;48.408;10.004;2023-02-05T12:40:00;1.60;99.90
1179;DHT22;578;48.408;10.004;2023-02-05T12:42:32;1.60;99.90
1179;DHT22;578;48.408;10.004;2023-02-05T12:45:30;1.70;99.90
1179;DHT22;578;48.408;10.004;2023-02-05T12:48:17;1.70;99.90
1179;DHT22;578;48.408;10.004;2023-02-05T12:51:06;1.80;99.90
1179;DHT22;578;48.408;10.004;2023-02-05T12:53:46;1.80;99.90
1179;DHT22;578;48.408;10.004;2023-02-05T12:56:36;1.80;99.90
1179;DHT22;578;48.408;10.004;2023-02-05T12:59:13;1.80;99.90
1179;DHT22;578;48.408;10.004;2023-02-05T13:01:44;1.70;99.90
1179;DHT22;578;48.408;10.004;2023-02-05T13:04:20;1.80;99.90
1179;DHT22;578;48.408;10.004;2023-02-05T13:06:52;1.80;99.90
1179;DHT22;578;48.408;10.004;2023-02-05T13:09:23;1.80;99.90
1179;DHT22;578;48.408;10.004;2023-02-05T13:11:56;1.70;99.90
1179;DHT22;578;48.408;10.004;2023-02-05T13:14:27;1.70;99.90
1179;DHT22;578;48.408;10.004;2023-02-05T13:17:00;1.80;99.90
1179;DHT22;578;48.408;10.004;2023-02-05T13:19:30;1.80;99.90
1179;DHT22;578;48.408;10.004;2023-02-05T13:22:11;1.80;99.90
1179;DHT22;578;48.408;10.004;2023-02-05T13:24:59;1.90;99.90
1179;DHT22;578;48.408;10.004;2023-02-05T13:27:48;1.90;99.90
1179;DHT22;578;48.408;10.004;2023-02-05T13:30:46;1.90;99.90
1179;DHT22;578;48.408;10.004;2023-02-05T13:33:15;1.90;99.90
1179;DHT22;578;48.408;10.004;2023-02-05T13:38:38;2.00;99.90
1179;DHT22;578;48.408;10.004;2023-02-05T13:41:34;2.10;99.90
1179;DHT22;578;48.408;10.004;2023-02-05T13:44:24;2.10;99.90
1179;DHT22;578;48.408;10.004;2023-02-05T13:47:12;2.10;99.90
1179;DHT22;578;48.408;10.004;2023-02-05T13:50:05;2.10;99.90
1179;DHT22;578;48.408;10.004;2023-02-05T13:53:04;2.20;99.90
1179;DHT22;578;48.408;10.004;2023-02-05T13:55:56;2.20;99.90
1179;DHT22;578;48.408;10.004;2023-02-05T13:58:28;2.20;99.90
1179;DHT22;578;48.408;10.004;2023-02-05T14:00:59;2.30;99.90
1179;DHT22;578;48.408;10.004;2023-02-05T14:03:32;2.30;99.90
1179;DHT22;578;48.408;10.004;2023-02-05T14:06:13;2.40;99.90
1179;DHT22;578;48.408;10.004;2023-02-05T14:08:40;2.40;99.90
1179;DHT22;578;48.408;10.004;2023-02-05T14:11:08;2.40;99.90
1179;DHT22;578;48.408;10.004;2023-02-05T14:13:35;2.40;99.90
1179;DHT22;578;48.408;10.004;2023-02-05T14:16:34;2.50;99.90
1179;DHT22;578;48.408;10.004;2023-02-05T14:19:15;2.40;99.90
1179;DHT22;578;48.408;10.004;2023-02-05T14:22:00;2.40;99.90
1179;DHT22;578;48.408;10.004;2023-02-05T14:24:38;2.50;99.90
1179;DHT22;578;48.408;10.004;2023-02-05T14:33:40;2.50;99.90
1179;DHT22;578;48.408;10.004;2023-02-05T14:36:30;2.50;99.90
1179;DHT22;578;48.408;10.004;2023-02-05T14:39:00;2.50;99.90
1179;DHT22;578;48.408;10.004;2023-02-05T14:41:30;2.40;99.90
1179;DHT22;578;48.408;10.004;2023-02-05T14:44:01;2.40;99.90
1179;DHT22;578;48.408;10.004;2023-02-05T14:46:30;2.40;99.90
1179;DHT22;578;48.408;10.004;2023-02-05T14:49:00;2.40;99.90
1179;DHT22;578;48.408;10.004;2023-02-05T14:51:31;2.40;99.90
1179;DHT22;578;48.408;10.004;2023-02-05T14:54:01;2.30;99.90
1179;DHT22;578;48.408;10.004;2023-02-05T14:56:30;2.30;99.90
1179;DHT22;578;48.408;10.004;2023-02-05T14:59:03;2.30;99.90
1179;DHT22;578;48.408;10.004;2023-02-05T15:01:44;2.30;99.90
1179;DHT22;578;48.408;10.004;2023-02-05T15:04:41;2.30;99.90
1179;DHT22;578;48.408;10.004;2023-02-05T15:07:12;2.20;99.90
1179;DHT22;578;48.408;10.004;2023-02-05T15:09:42;2.20;99.90
1179;DHT22;578;48.408;10.004;2023-02-05T15:12:40;2.30;99.90
1179;DHT22;578;48.408;10.004;2023-02-05T15:15:25;2.20;99.90
1179;DHT22;578;48.408;10.004;2023-02-05T15:17:56;2.30;99.90
1179;DHT22;578;48.408;10.004;2023-02-05T15:20:30;2.30;99.90
1179;DHT22;578;48.408;10.004;2023-02-05T15:23:03;2.20;99.90
1179;DHT22;578;48.408;10.004;2023-02-05T15:25:37;2.20;99.90
1179;DHT22;578;48.408;10.004;2023-02-05T15:28:11;2.20;99.90
1179;DHT22;578;48.408;10.004;2023-02-05T15:30:51;2.20;99.90
1179;DHT22;578;48.408;10.004;2023-02-05T15:36:12;2.10;99.90
1179;DHT22;578;48.408;10.004;2023-02-05T15:38:45;2.10;99.90
1179;DHT22;578;48.408;10.004;2023-02-05T15:41:14;2.10;99.90
1179;DHT22;578;48.408;10.004;2023-02-05T15:43:56;2.00;99.90
1179;DHT22;578;48.408;10.004;2023-02-05T15:46:23;2.00;99.90
1179;DHT22;578;48.408;10.004;2023-02-05T15:48:50;1.90;99.90
1179;DHT22;578;48.408;10.004;2023-02-05T15:51:28;2.00;99.90
1179;DHT22;578;48.408;10.004;2023-02-05T15:53:57;1.90;99.90
1179;DHT22;578;48.408;10.004;2023-02-05T15:56:27;1.90;99.90
1179;DHT22;578;48.408;10.004;2023-02-05T15:58:58;1.80;99.90
1179;DHT22;578;48.408;10.004;2023-02-05T16:01:28;1.80;99.90
1179;DHT22;578;48.408;10.004;2023-02-05T16:03:56;1.80;99.90
1179;DHT22;578;48.408;10.004;2023-02-05T16:06:25;1.80;99.90
1179;DHT22;578;48.408;10.004;2023-02-05T16:08:53;1.80;99.90
1179;DHT22;578;48.408;10.004;2023-02-05T16:11:28;1.70;99.90
1179;DHT22;578;48.408;10.004;2023-02-05T16:14:02;1.70;99.90
1179;DHT22;578;48.408;10.004;2023-02-05T16:16:29;1.60;99.90
1179;DHT22;578;48.408;10.004;2023-02-05T16:19:00;1.60;99.90
1179;DHT22;578;48.408;10.004;2023-02-05T16:21:32;1.60;99.90
1179;DHT22;578;48.408;10.004;2023-02-05T16:24:02;1.50;99.90
1179;DHT22;578;48.408;10.004;2023-02-05T16:26:35;1.50;99.90
1179;DHT22;578;48.408;10.004;2023-02-05T16:29:06;1.40;99.90
1179;DHT22;578;48.408;10.004;2023-02-05T16:31:34;1.40;99.90
1179;DHT22;578;48.408;10.004;2023-02-05T16:34:04;1.30;99.90
1179;DHT22;578;48.408;10.004;2023-02-05T16:36:36;1.30;99.90
1179;DHT22;578;48.408;10.004;2023-02-05T16:39:06;1.30;99.90
1179;DHT22;578;48.408;10.004;2023-02-05T16:41:36;1.30;99.90
1179;DHT22;578;48.408;10.004;2023-02-05T16:44:05;1.30;99.90
1179;DHT22;578;48.408;10.004;2023-02-05T16:46:33;1.30;99.90
1179;DHT22;578;48.408;10.004;2023-02-05T16:49:01;1.40;99.90
1179;DHT22;578;48.408;10.004;2023-02-05T16:51:36;1.40;99.90